Time;durP1;ratioP1;P1;durP2;ratioP2;P2;SDS_P1;SDS_P2;PMS_P1;PMS_P2;Temp;Humidity;BMP_temperature;BMP_pressure;BME280_temperature;BME280_humidity;BME280_pressure;Samples;Min_cycle;Max_cycle;Signal;HPM_P1;HPM_P2
2023/05/03 00:00:16;;;;;;;5.63;1.92;;;;;;;-148.88;100.00;77804.88;5003554;28;20022;-85
2023/05/03 00:02:43;;;;;;;5.40;2.00;;;;;;;-148.88;100.00;77790.66;5003211;28;20025;-86
2023/05/03 00:05:13;;;;;;;3.72;1.80;;;;;;;-148.88;100.00;77794.72;5003708;28;20400;-87
2023/05/03 00:07:41;;;;;;;2.80;1.70;;;;;;;-148.88;100.00;77784.56;5020436;28;20049;-86
2023/05/03 00:10:09;;;;;;;5.70;1.85;;;;;;;-148.88;100.00;77780.50;5020497;28;20030;-86
2023/05/03 00:12:34;;;;;;;3.08;1.77;;;;;;;-148.88;100.00;77770.34;5002548;28;20022;-88
2023/05/03 00:15:00;;;;;;;4.53;1.90;;;;;;;-148.88;100.00;77772.38;5002436;28;20030;-87
2023/05/03 00:17:25;;;;;;;4.68;2.13;;;;;;;-148.88;100.00;77776.44;4999767;28;20476;-87
2023/05/03 00:19:54;;;;;;;3.00;1.90;;;;;;;-148.88;100.00;77784.56;5017549;28;20022;-86
2023/05/03 00:22:19;;;;;;;5.70;2.10;;;;;;;-148.88;100.00;77788.63;5018713;28;20076;-86
2023/05/03 00:24:44;;;;;;;3.45;2.08;;;;;;;-148.88;100.00;77784.56;5001792;28;20026;-86
2023/05/03 00:27:10;;;;;;;4.30;2.05;;;;;;;-148.88;100.00;77786.59;5001844;28;20106;-87
2023/05/03 00:29:35;;;;;;;3.47;1.70;;;;;;;-148.88;100.00;77792.69;5002660;28;20392;-87
2023/05/03 00:32:01;;;;;;;4.40;2.40;;;;;;;-148.88;100.00;77798.78;5002301;28;20113;-86
2023/05/03 00:34:26;;;;;;;5.75;2.42;;;;;;;-148.88;100.00;77796.75;5002848;28;20037;-87
2023/05/03 00:36:51;;;;;;;7.38;2.67;;;;;;;-148.88;100.00;77796.75;5002857;28;20033;-86
2023/05/03 00:39:17;;;;;;;5.65;2.10;;;;;;;-148.88;100.00;77802.84;5020105;28;20540;-86
2023/05/03 00:41:42;;;;;;;6.15;2.17;;;;;;;-148.88;100.00;77802.84;5020186;28;20030;-87
2023/05/03 00:44:07;;;;;;;4.10;2.33;;;;;;;-148.88;100.00;77808.97;5002390;28;20416;-87
2023/05/03 00:46:33;;;;;;;3.25;1.70;;;;;;;-148.88;100.00;77813.03;5021084;28;20064;-87
2023/05/03 00:48:58;;;;;;;3.78;2.17;;;;;;;-148.88;100.00;77813.03;5020080;28;20022;-86
2023/05/03 00:51:26;;;;;;;5.57;2.10;;;;;;;-148.88;100.00;77808.97;5001924;28;20030;-87
2023/05/03 00:53:52;;;;;;;10.05;2.75;;;;;;;-148.88;100.00;77808.97;4999227;28;20112;-86
2023/05/03 00:56:22;;;;;;;5.00;2.10;;;;;;;-148.88;100.00;77804.88;5000333;28;20053;-86
2023/05/03 00:58:49;;;;;;;6.10;2.10;;;;;;;-148.88;100.00;77813.03;5001204;28;20060;-86
2023/05/03 01:01:15;;;;;;;6.13;2.40;;;;;;;-148.88;100.00;77800.81;5018875;28;20076;-86
2023/05/03 01:03:41;;;;;;;6.10;2.22;;;;;;;-148.88;100.00;77804.88;5001424;28;20017;-86
2023/05/03 01:06:38;;;;;;;6.97;2.70;;;;;;;-148.88;100.00;77813.03;5002329;28;20030;-86
2023/05/03 01:09:28;;;;;;;7.63;2.45;;;;;;;-148.88;100.00;77825.22;5003987;28;20021;-88
2023/05/03 01:12:21;;;;;;;4.10;2.30;;;;;;;-148.88;100.00;77808.97;4990474;28;20091;-86
2023/05/03 01:15:07;;;;;;;5.93;2.60;;;;;;;-148.88;100.00;77817.09;5021670;28;20076;-86
2023/05/03 01:17:40;;;;;;;7.25;3.20;;;;;;;-148.88;100.00;77843.50;5004051;28;20057;-87
2023/05/03 01:20:12;;;;;;;10.15;2.80;;;;;;;-148.88;100.00;77845.53;5004015;28;20026;-87
2023/05/03 01:22:45;;;;;;;7.43;2.78;;;;;;;-148.88;100.00;77849.59;5003899;28;20120;-87
2023/05/03 01:25:12;;;;;;;8.30;2.60;;;;;;;-148.88;100.00;77845.53;5003855;28;20030;-85
2023/05/03 01:27:39;;;;;;;5.20;2.65;;;;;;;-148.88;100.00;77845.53;5018971;28;20029;-86
2023/05/03 01:30:07;;;;;;;7.72;3.20;;;;;;;-148.88;100.00;77837.41;4999082;28;20060;-86
2023/05/03 01:32:59;;;;;;;6.28;3.05;;;;;;;-148.88;100.00;77845.53;5017827;28;20034;-86
2023/05/03 01:35:36;;;;;;;6.63;2.63;;;;;;;-148.88;100.00;77865.84;5001191;28;20028;-86
2023/05/03 01:38:03;;;;;;;8.77;2.70;;;;;;;-148.88;100.00;77855.69;5001726;28;20029;-86
2023/05/03 01:40:31;;;;;;;12.38;2.60;;;;;;;-148.88;100.00;77867.88;5019865;28;20480;-86
2023/05/03 01:42:58;;;;;;;6.13;2.92;;;;;;;-148.88;100.00;77884.16;5002074;28;20024;-86
2023/05/03 01:45:24;;;;;;;7.45;3.40;;;;;;;-148.88;100.00;77890.25;5002737;28;20112;-86
2023/05/03 01:47:50;;;;;;;9.15;3.30;;;;;;;-148.88;100.00;77892.28;5002998;28;20072;-86
2023/05/03 01:50:15;;;;;;;5.63;2.80;;;;;;;-148.88;100.00;77892.28;5002608;28;20476;-86
2023/05/03 01:52:40;;;;;;;10.27;3.28;;;;;;;-148.88;100.00;77886.19;5002314;28;20117;-87
2023/05/03 01:55:06;;;;;;;7.60;3.08;;;;;;;-148.88;100.00;77902.44;5002667;28;20404;-86
2023/05/03 01:57:31;;;;;;;7.60;3.30;;;;;;;-148.88;100.00;77894.31;5003233;28;20036;-87
2023/05/03 01:59:57;;;;;;;9.68;3.22;;;;;;;-148.88;100.00;77916.66;5004370;28;20025;-86
2023/05/03 02:02:22;;;;;;;6.50;2.40;;;;;;;-148.88;100.00;77930.91;5002274;28;20025;-85
2023/05/03 02:04:48;;;;;;;8.48;3.10;;;;;;;-148.88;100.00;77926.81;5000182;28;20014;-84
2023/05/03 02:07:14;;;;;;;8.23;3.15;;;;;;;-148.88;100.00;77939.03;5001639;28;20064;-84
2023/05/03 02:09:39;;;;;;;9.75;3.53;;;;;;;-148.88;100.00;77941.06;5002689;28;20026;-84
2023/05/03 02:12:10;;;;;;;7.00;3.55;;;;;;;-148.88;100.00;77951.22;5003555;28;20022;-85
2023/05/03 02:14:38;;;;;;;5.22;2.88;;;;;;;-148.88;100.00;77959.34;5003861;28;20045;-84
2023/05/03 02:17:05;;;;;;;6.22;3.08;;;;;;;-148.88;100.00;77971.53;5022470;28;20468;-85
2023/05/03 02:19:30;;;;;;;11.25;3.50;;;;;;;-148.88;100.00;77979.66;5004778;28;20029;-84
2023/05/03 02:21:55;;;;;;;8.50;3.88;;;;;;;-148.88;100.00;77973.56;5024591;28;20396;-85
2023/05/03 02:24:22;;;;;;;13.23;3.75;;;;;;;-148.88;100.00;77971.53;5024097;28;20025;-85
2023/05/03 02:26:50;;;;;;;6.82;3.75;;;;;;;-148.88;100.00;77967.47;5007333;28;20034;-85
2023/05/03 02:29:16;;;;;;;8.48;3.67;;;;;;;-148.88;100.00;77971.53;5007361;28;20038;-85
2023/05/03 02:31:41;;;;;;;7.10;3.38;;;;;;;-148.88;100.00;77975.59;5007036;28;20076;-85
2023/05/03 02:34:10;;;;;;;8.93;3.28;;;;;;;-148.88;100.00;77979.66;5007692;28;20121;-85
2023/05/03 02:36:38;;;;;;;7.90;3.38;;;;;;;-148.88;100.00;77983.72;5007467;28;20030;-85
2023/05/03 02:39:10;;;;;;;12.77;3.90;;;;;;;-148.88;100.00;77987.78;5020813;28;20069;-84
2023/05/03 02:41:35;;;;;;;8.43;3.75;;;;;;;-148.88;100.00;77993.91;5004896;28;20063;-84
2023/05/03 02:44:01;;;;;;;9.52;4.15;;;;;;;-148.88;100.00;78000.00;5005236;28;20053;-84
2023/05/03 02:48:54;;;;;;;15.20;4.68;;;;;;;-148.88;100.00;78008.13;5026982;22;20523;-76
2023/05/03 02:51:20;;;;;;;9.80;3.92;;;;;;;-148.88;100.00;77997.97;5017926;28;20060;-76
2023/05/03 02:53:45;;;;;;;15.63;4.20;;;;;;;-148.88;100.00;78030.47;5018022;28;20014;-77
2023/05/03 02:56:10;;;;;;;8.50;4.00;;;;;;;-148.88;100.00;78032.50;5018290;28;20056;-77
2023/05/03 02:58:35;;;;;;;6.90;3.38;;;;;;;-148.88;100.00;78036.56;5018126;28;20473;-76
2023/05/03 03:01:01;;;;;;;7.05;3.17;;;;;;;-148.88;100.00;78030.47;5018170;28;20097;-77
2023/05/03 03:03:26;;;;;;;8.93;3.40;;;;;;;-148.88;100.00;78012.19;5018215;28;20049;-77
2023/05/03 03:05:51;;;;;;;8.15;4.28;;;;;;;-148.88;100.00;78004.06;5018212;28;20028;-77
2023/05/03 03:08:17;;;;;;;7.32;4.10;;;;;;;-148.88;100.00;78004.06;4999881;28;20060;-77
2023/05/03 03:10:42;;;;;;;5.50;3.28;;;;;;;-148.88;100.00;78012.19;5016116;28;20039;-77
2023/05/03 03:13:07;;;;;;;14.65;3.88;;;;;;;-148.88;100.00;78030.47;5016140;28;20025;-77
2023/05/03 03:15:33;;;;;;;8.90;3.60;;;;;;;-148.88;100.00;78032.50;4998440;28;20594;-77
2023/05/03 03:17:58;;;;;;;7.15;3.38;;;;;;;-148.88;100.00;78020.31;5016460;28;20026;-77
2023/05/03 03:20:23;;;;;;;8.68;3.45;;;;;;;-148.88;100.00;78006.09;5016495;28;20030;-77
2023/05/03 03:22:49;;;;;;;6.40;3.45;;;;;;;-148.88;100.00;77991.84;4998315;28;20033;-77
2023/05/03 03:25:14;;;;;;;5.15;2.88;;;;;;;-148.88;100.00;77993.91;4999132;28;20022;-76
2023/05/03 03:27:40;;;;;;;9.43;3.58;;;;;;;-148.88;100.00;77995.94;4999172;28;20552;-77
2023/05/03 03:30:07;;;;;;;7.82;3.58;;;;;;;-148.88;100.00;78002.03;4998644;28;20049;-77
2023/05/03 03:32:32;;;;;;;5.90;3.03;;;;;;;-148.88;100.00;78000.00;5015849;28;20022;-78
2023/05/03 03:34:57;;;;;;;7.28;2.88;;;;;;;-148.88;100.00;78004.06;5016519;28;20026;-78
2023/05/03 03:37:23;;;;;;;9.50;3.58;;;;;;;-148.88;100.00;78002.03;5016188;28;20109;-77
2023/05/03 03:39:48;;;;;;;7.03;3.15;;;;;;;-148.88;100.00;78000.00;5017173;28;20180;-78
2023/05/03 03:42:14;;;;;;;8.82;3.63;;;;;;;-148.88;100.00;78008.13;5017369;28;20030;-77
2023/05/03 03:44:39;;;;;;;10.38;3.63;;;;;;;-148.88;100.00;78012.19;5017490;28;20056;-77
2023/05/03 03:47:05;;;;;;;7.35;2.97;;;;;;;-148.88;100.00;78016.25;5018098;28;20108;-78
2023/05/03 03:49:30;;;;;;;9.50;3.40;;;;;;;-148.88;100.00;78020.31;5017899;28;20029;-78
2023/05/03 03:51:55;;;;;;;9.50;3.35;;;;;;;-148.88;100.00;78020.31;5017913;28;20025;-78
2023/05/03 03:54:21;;;;;;;6.57;3.50;;;;;;;-148.88;100.00;78028.44;5017731;28;20022;-78
2023/05/03 03:56:46;;;;;;;7.75;3.45;;;;;;;-148.88;100.00;78028.44;5018712;28;20036;-78
2023/05/03 03:59:11;;;;;;;7.22;4.00;;;;;;;-148.88;100.00;78034.53;5017935;28;20476;-77
2023/05/03 04:01:37;;;;;;;7.15;3.35;;;;;;;-148.88;100.00;78038.59;4998604;28;20026;-77
2023/05/03 04:04:03;;;;;;;6.90;3.63;;;;;;;-148.88;100.00;78042.66;5015378;28;20560;-76
2023/05/03 04:06:28;;;;;;;22.23;4.07;;;;;;;-148.88;100.00;78040.63;5015950;28;20056;-77
2023/05/03 04:08:56;;;;;;;7.97;3.85;;;;;;;-148.88;100.00;78046.72;5016677;28;20060;-77
2023/05/03 04:11:22;;;;;;;7.05;3.72;;;;;;;-148.88;100.00;78038.59;5017048;28;20032;-77
2023/05/03 04:13:48;;;;;;;10.85;3.40;;;;;;;-148.88;100.00;78034.53;4999219;28;20018;-77
2023/05/03 04:16:14;;;;;;;8.40;3.80;;;;;;;-148.88;100.00;78036.56;5016800;28;20026;-77
2023/05/03 04:18:40;;;;;;;7.22;3.97;;;;;;;-148.88;100.00;78036.56;5016362;28;20437;-77
2023/05/03 04:21:05;;;;;;;11.25;3.85;;;;;;;-148.88;100.00;78032.50;5016359;28;20022;-77
2023/05/03 04:23:31;;;;;;;7.15;3.42;;;;;;;-148.88;100.00;78028.44;5016548;28;20507;-77
2023/05/03 04:25:56;;;;;;;9.10;3.63;;;;;;;-148.88;100.00;78032.50;5016447;28;20108;-77
2023/05/03 04:28:22;;;;;;;7.90;3.42;;;;;;;-148.88;100.00;78040.63;5015213;28;20392;-77
2023/05/03 04:30:48;;;;;;;9.38;4.30;;;;;;;-148.88;100.00;78030.47;5015406;28;20022;-77
2023/05/03 04:33:14;;;;;;;9.15;3.88;;;;;;;-148.88;100.00;78032.50;4997786;28;20507;-77
2023/05/03 04:35:40;;;;;;;10.98;4.40;;;;;;;-148.88;100.00;78028.44;5015298;28;20033;-77
2023/05/03 04:38:05;;;;;;;8.75;4.10;;;;;;;-148.88;100.00;78020.31;5015410;28;20025;-77
2023/05/03 04:40:31;;;;;;;10.48;3.60;;;;;;;-148.88;100.00;78008.13;5015304;28;20025;-77
2023/05/03 04:42:56;;;;;;;8.93;4.60;;;;;;;-148.88;100.00;78008.13;4998086;28;20030;-77
2023/05/03 04:45:22;;;;;;;11.32;4.72;;;;;;;-148.88;100.00;78002.03;5015356;28;20021;-77
2023/05/03 04:47:48;;;;;;;6.13;3.53;;;;;;;-148.88;100.00;78002.03;5014998;28;20065;-78
2023/05/03 04:50:13;;;;;;;6.72;3.60;;;;;;;-148.88;100.00;78002.03;4998942;28;20041;-78
2023/05/03 04:52:39;;;;;;;7.63;3.83;;;;;;;-148.88;100.00;78002.03;5000402;28;20021;-77
2023/05/03 04:55:04;;;;;;;7.53;4.43;;;;;;;-148.88;100.00;78000.00;5016922;28;20065;-78
2023/05/03 04:57:31;;;;;;;7.85;4.35;;;;;;;-148.88;100.00;77993.91;5016994;28;20025;-78
2023/05/03 04:59:56;;;;;;;10.10;4.78;;;;;;;-148.88;100.00;78000.00;5015194;28;20022;-77
2023/05/03 05:02:22;;;;;;;9.23;4.47;;;;;;;-148.88;100.00;77987.78;4997507;28;20033;-77
2023/05/03 05:04:47;;;;;;;9.55;3.95;;;;;;;-148.88;100.00;77983.72;5015929;28;20018;-77
2023/05/03 05:07:12;;;;;;;11.68;4.28;;;;;;;-148.88;100.00;77971.53;4997499;28;20503;-78
2023/05/03 05:09:38;;;;;;;9.43;3.65;;;;;;;-148.88;100.00;77971.53;5014805;28;20484;-78
2023/05/03 05:12:04;;;;;;;11.05;3.50;;;;;;;-148.88;100.00;77959.34;5014632;28;20041;-77
2023/05/03 05:14:30;;;;;;;11.55;4.13;;;;;;;-148.88;100.00;77953.25;5014098;28;20413;-76
2023/05/03 05:16:56;;;;;;;7.50;3.70;;;;;;;-148.88;100.00;77949.19;5013822;28;20030;-76
2023/05/03 05:19:21;;;;;;;7.90;3.83;;;;;;;-148.88;100.00;77943.09;5013998;28;20029;-76
2023/05/03 05:21:47;;;;;;;11.27;5.18;;;;;;;-148.88;100.00;77937.00;5014120;28;20053;-76
2023/05/03 05:24:12;;;;;;;10.70;4.53;;;;;;;-148.88;100.00;77930.91;5013540;28;20022;-76
2023/05/03 05:26:37;;;;;;;20.15;5.35;;;;;;;-148.88;100.00;77922.75;5013728;28;20036;-77
2023/05/03 05:29:03;;;;;;;8.95;4.63;;;;;;;-148.88;100.00;77922.75;5013775;28;20029;-76
2023/05/03 05:31:28;;;;;;;16.70;4.72;;;;;;;-148.88;100.00;77918.69;5013674;28;20025;-76
2023/05/03 05:33:53;;;;;;;14.43;5.18;;;;;;;-148.88;100.00;77914.63;5013734;28;20632;-77
2023/05/03 05:36:19;;;;;;;11.65;4.90;;;;;;;-148.88;100.00;77910.56;5013540;28;20439;-77
2023/05/03 05:38:44;;;;;;;9.85;5.07;;;;;;;-148.88;100.00;77906.50;5013449;28;20030;-76
2023/05/03 05:41:10;;;;;;;8.57;4.35;;;;;;;-148.88;100.00;77908.53;5013494;28;20455;-76
2023/05/03 05:43:36;;;;;;;8.70;5.03;;;;;;;-148.88;100.00;77900.41;4995793;28;20052;-76
2023/05/03 05:46:01;;;;;;;11.27;4.80;;;;;;;-148.88;100.00;77912.59;5013370;28;20022;-76
2023/05/03 05:48:26;;;;;;;16.30;5.72;;;;;;;-148.88;100.00;77914.63;5013412;28;20084;-76
2023/05/03 05:50:52;;;;;;;14.35;4.63;;;;;;;-148.88;100.00;77902.44;5013646;28;20113;-76
2023/05/03 05:53:17;;;;;;;10.40;4.72;;;;;;;-148.88;100.00;77894.31;4995789;28;20366;-76
2023/05/03 05:55:42;;;;;;;8.50;4.57;;;;;;;-148.88;100.00;77894.31;5013375;28;20034;-76
2023/05/03 05:58:08;;;;;;;10.40;4.68;;;;;;;-148.88;100.00;77886.19;4995697;28;20025;-76
2023/05/03 06:00:34;;;;;;;10.70;4.78;;;;;;;-148.88;100.00;77871.97;4996266;28;20051;-76
2023/05/03 06:02:59;;;;;;;10.68;4.95;;;;;;;-148.88;100.00;77865.84;5013126;28;20030;-76
2023/05/03 06:05:24;;;;;;;9.85;5.25;;;;;;;-148.88;100.00;77861.78;4995373;28;20022;-76
2023/05/03 06:07:50;;;;;;;13.40;5.47;;;;;;;-148.88;100.00;77855.69;5012910;28;20449;-77
2023/05/03 06:10:15;;;;;;;11.07;4.50;;;;;;;-148.88;100.00;77859.75;5013052;28;20049;-77
2023/05/03 06:12:40;;;;;;;8.90;4.25;;;;;;;-148.88;100.00;77841.47;5015954;28;20532;-77
2023/05/03 06:15:06;;;;;;;12.18;4.82;;;;;;;-148.88;100.00;77841.47;5019138;28;20030;-79
2023/05/03 06:17:32;;;;;;;9.70;4.35;;;;;;;-148.88;100.00;77841.47;4999706;28;20026;-76
2023/05/03 06:19:57;;;;;;;10.40;4.38;;;;;;;-148.88;100.00;77833.34;4996138;28;20018;-76
2023/05/03 06:22:23;;;;;;;10.90;4.88;;;;;;;-148.88;100.00;77827.25;5016857;28;20519;-76
2023/05/03 06:24:49;;;;;;;8.23;4.28;;;;;;;-148.88;100.00;77819.13;4999007;28;20025;-76
2023/05/03 06:27:14;;;;;;;11.00;4.10;;;;;;;-148.88;100.00;77798.78;5017141;28;20064;-76
2023/05/03 06:29:40;;;;;;;8.25;3.83;;;;;;;-148.88;100.00;77792.69;5016522;28;20073;-76
2023/05/03 06:32:05;;;;;;;7.00;3.65;;;;;;;-148.88;100.00;77770.34;4999244;28;20502;-76
2023/05/03 06:34:31;;;;;;;11.75;3.80;;;;;;;-148.88;100.00;77750.03;5016336;28;20489;-76
2023/05/03 06:36:56;;;;;;;8.25;2.75;;;;;;;-148.88;100.00;77735.78;4998985;28;20029;-76
2023/05/03 06:39:21;;;;;;;6.15;2.92;;;;;;;-148.88;100.00;77723.59;4998757;28;20022;-76
2023/05/03 06:41:46;;;;;;;9.93;3.15;;;;;;;-148.88;100.00;77709.38;5016590;28;20041;-76
2023/05/03 06:44:12;;;;;;;6.80;2.70;;;;;;;-148.88;100.00;77701.25;5016120;28;20542;-76
2023/05/03 06:46:37;;;;;;;5.85;2.40;;;;;;;-148.88;100.00;77695.16;5016377;28;20030;-76
2023/05/03 06:49:03;;;;;;;6.80;2.55;;;;;;;-148.88;100.00;77674.84;5016008;28;20455;-76
2023/05/03 06:51:31;;;;;;;4.38;2.63;;;;;;;-148.88;100.00;77668.72;4998751;28;20053;-76
2023/05/03 06:53:59;;;;;;;10.45;3.20;;;;;;;-148.88;100.00;77652.47;5016263;28;20018;-76
2023/05/03 06:56:25;;;;;;;6.75;3.13;;;;;;;-148.88;100.00;77636.22;5016557;28;20026;-75
2023/05/03 06:58:50;;;;;;;6.95;2.90;;;;;;;-148.88;100.00;77630.13;5016055;28;20026;-75
2023/05/03 07:01:17;;;;;;;11.25;3.00;;;;;;;-148.88;100.00;77622.00;5016473;28;20088;-75
2023/05/03 07:03:43;;;;;;;5.50;2.78;;;;;;;-148.88;96.16;77619.97;5016459;28;20548;-75
2023/05/03 07:06:08;;;;;;;6.88;3.05;;;;;;;-148.88;96.30;77609.81;5016554;28;20143;-75
2023/05/03 07:08:33;;;;;;;9.95;2.95;;;;;;;-148.88;97.44;77609.81;5016138;28;20032;-75
2023/05/03 07:10:59;;;;;;;10.73;3.15;;;;;;;-148.88;97.97;77585.41;4998397;28;20118;-75
2023/05/03 07:13:24;;;;;;;5.10;2.88;;;;;;;-148.88;96.18;77569.16;5016105;28;20026;-76
2023/05/03 07:15:50;;;;;;;7.65;3.38;;;;;;;-148.88;98.34;77552.91;5015985;28;20038;-75
2023/05/03 07:18:15;;;;;;;5.07;3.03;;;;;;;-148.88;96.21;77530.53;5015922;28;20100;-76
2023/05/03 07:20:40;;;;;;;5.95;3.13;;;;;;;-148.88;97.01;77516.31;5016257;28;20388;-75
2023/05/03 07:23:06;;;;;;;7.10;3.47;;;;;;;-148.88;95.13;77516.31;5015619;28;20049;-76
2023/05/03 07:25:32;;;;;;;7.32;3.25;;;;;;;-148.88;93.09;77498.03;5015600;28;20022;-75
2023/05/03 07:27:57;;;;;;;5.10;2.83;;;;;;;-148.88;90.75;77485.84;5015873;28;20032;-76
2023/05/03 07:30:23;;;;;;;7.10;3.83;;;;;;;-148.88;91.43;77475.69;5015758;28;20026;-76
2023/05/03 07:32:51;;;;;;;6.50;2.72;;;;;;;-148.88;90.30;77489.91;5015720;28;20088;-75
2023/05/03 07:35:16;;;;;;;6.30;2.63;;;;;;;-148.88;90.72;77508.19;5015571;28;20547;-75
2023/05/03 07:37:42;;;;;;;4.63;2.42;;;;;;;-148.88;91.31;77518.34;5015750;28;20030;-75
2023/05/03 07:40:08;;;;;;;7.00;2.80;;;;;;;-148.88;91.92;77487.88;5016628;28;20029;-75
2023/05/03 07:42:34;;;;;;;4.05;2.40;;;;;;;-148.88;94.20;77441.13;5015776;28;20480;-76
2023/05/03 07:45:00;;;;;;;5.90;2.10;;;;;;;-148.88;83.06;77400.50;5015340;28;20037;-75
2023/05/03 07:47:26;;;;;;;5.07;2.15;;;;;;;-148.88;85.12;77390.34;5015756;28;20037;-75
2023/05/03 07:49:51;;;;;;;7.53;2.20;;;;;;;-148.88;87.20;77351.72;5015378;28;20477;-75
2023/05/03 07:52:17;;;;;;;7.47;1.95;;;;;;;-148.88;80.61;77331.41;5015456;28;20083;-75
2023/05/03 07:54:44;;;;;;;5.53;2.15;;;;;;;-148.88;78.07;77315.16;5015223;28;20029;-75
2023/05/03 07:57:10;;;;;;;6.38;2.13;;;;;;;-148.88;77.38;77302.97;4997710;28;20025;-75
2023/05/03 07:59:35;;;;;;;8.80;2.30;;;;;;;-148.88;77.36;77292.81;5015234;28;20416;-75
2023/05/03 08:02:00;;;;;;;5.60;1.88;;;;;;;-148.88;77.87;77270.44;5015166;28;20437;-76
2023/05/03 08:04:26;;;;;;;5.07;2.10;;;;;;;-148.88;73.68;77280.59;5014920;28;20049;-75
2023/05/03 08:06:51;;;;;;;3.40;1.58;;;;;;;-148.88;76.27;77284.66;4997555;28;20026;-75
2023/05/03 08:09:17;;;;;;;3.22;1.45;;;;;;;-148.88;75.54;77276.53;5015013;28;20022;-75
2023/05/03 08:11:45;;;;;;;6.18;2.40;;;;;;;-148.88;75.52;77250.13;5015111;28;20029;-75
2023/05/03 08:14:10;;;;;;;2.65;1.33;;;;;;;-148.88;76.56;77227.78;5014906;28;20096;-75
2023/05/03 08:16:36;;;;;;;5.15;2.00;;;;;;;-148.88;73.77;77217.63;4997660;28;20189;-76
2023/05/03 08:19:01;;;;;;;4.03;2.17;;;;;;;-148.88;71.31;77225.75;5014992;28;20378;-76
2023/05/03 08:21:27;;;;;;;4.93;1.83;;;;;;;-148.88;75.30;77201.34;5014802;28;20156;-75
2023/05/03 08:23:53;;;;;;;8.07;2.33;;;;;;;-148.88;70.58;77219.66;5014634;28;20026;-75
2023/05/03 08:26:20;;;;;;;7.32;3.25;;;;;;;-148.88;74.61;77195.25;4997044;28;20470;-75
2023/05/03 08:28:46;;;;;;;3.70;1.70;;;;;;;-148.88;73.17;77185.09;5014625;28;20480;-75
2023/05/03 08:31:11;;;;;;;6.43;2.80;;;;;;;-148.88;69.86;77174.94;5014830;28;20036;-75
2023/05/03 08:33:36;;;;;;;4.70;2.67;;;;;;;-148.88;72.31;77179.00;5014673;28;20021;-75
2023/05/03 08:36:02;;;;;;;6.45;2.45;;;;;;;-148.88;68.23;77176.97;5013700;28;20030;-75
2023/05/03 08:38:27;;;;;;;7.47;1.95;;;;;;;-148.88;68.47;77201.34;5014478;28;20022;-75
2023/05/03 08:40:56;;;;;;;8.32;2.90;;;;;;;-148.88;71.94;77189.16;5014433;28;20128;-76
2023/05/03 08:43:24;;;;;;;6.30;1.98;;;;;;;-148.88;71.70;77152.59;5014615;28;20058;-76
2023/05/03 08:45:50;;;;;;;4.15;1.70;;;;;;;-148.88;70.91;77154.63;5014309;28;20018;-75
2023/05/03 08:48:15;;;;;;;7.97;3.00;;;;;;;-148.88;71.05;77154.63;5014320;28;20045;-75
2023/05/03 08:50:41;;;;;;;6.97;2.70;;;;;;;-148.88;69.71;77166.81;5014384;28;20045;-75
2023/05/03 08:53:08;;;;;;;6.80;2.63;;;;;;;-148.88;70.27;77144.47;4996799;28;20018;-76
2023/05/03 08:55:33;;;;;;;4.57;1.80;;;;;;;-148.88;68.78;77183.06;5014406;28;20022;-76
2023/05/03 08:57:59;;;;;;;6.43;2.63;;;;;;;-148.88;71.21;77185.09;5014236;28;20028;-75
2023/05/03 09:00:28;;;;;;;6.25;2.80;;;;;;;-148.88;72.04;77189.16;5014170;28;20021;-75
2023/05/03 09:02:54;;;;;;;5.80;2.63;;;;;;;-148.88;74.20;77134.31;4996396;28;20401;-75
2023/05/03 09:05:19;;;;;;;9.00;2.38;;;;;;;-148.88;69.33;77101.78;4996329;28;20029;-75
2023/05/03 09:08:01;;;;;;;8.65;1.80;;;;;;;-148.88;68.39;77071.31;5013972;28;20072;-75
2023/05/03 09:10:26;;;;;;;6.70;2.55;;;;;;;-148.88;66.24;77040.84;5014026;28;20080;-76
2023/05/03 09:12:57;;;;;;;6.85;2.58;;;;;;;-148.88;65.98;77040.84;5013888;28;20018;-76
2023/05/03 09:15:22;;;;;;;2.83;1.77;;;;;;;-148.88;65.45;77022.56;5013867;28;20026;-75
2023/05/03 09:18:07;;;;;;;4.93;2.13;;;;;;;-148.88;63.23;77061.16;4996088;28;20037;-75
2023/05/03 09:20:37;;;;;;;6.60;2.13;;;;;;;-148.88;64.43;77038.81;5014086;28;20029;-76
2023/05/03 09:23:03;;;;;;;5.30;2.55;;;;;;;-148.88;67.43;77000.19;5013690;28;20507;-76
2023/05/03 09:25:48;;;;;;;6.55;2.28;;;;;;;-148.88;63.72;77002.22;5013638;28;20034;-75
2023/05/03 09:28:15;;;;;;;4.78;2.40;;;;;;;-148.88;62.78;76959.56;5013760;28;20022;-75
2023/05/03 09:30:41;;;;;;;6.30;2.47;;;;;;;-148.88;63.16;76951.44;4996355;28;20400;-75
2023/05/03 09:33:07;;;;;;;6.00;2.72;;;;;;;-148.88;62.27;76965.66;5013677;28;20099;-75
2023/05/03 09:35:33;;;;;;;5.57;2.58;;;;;;;-148.88;67.60;76902.69;5013489;28;20477;-75
2023/05/03 09:37:59;;;;;;;5.50;2.53;;;;;;;-148.88;62.51;76886.41;4996169;28;20028;-76
2023/05/03 09:40:25;;;;;;;4.90;2.40;;;;;;;-148.88;60.73;76918.94;5013462;28;20025;-73
2023/05/03 09:43:08;;;;;;;4.72;2.30;;;;;;;-148.88;61.33;76902.69;5013377;28;20524;-75
2023/05/03 09:45:35;;;;;;;5.30;2.47;;;;;;;-148.88;59.91;76874.22;5013386;28;20112;-75
2023/05/03 09:48:02;;;;;;;4.82;2.40;;;;;;;-148.88;59.89;76797.03;5013105;28;20113;-75
2023/05/03 09:50:28;;;;;;;4.13;2.13;;;;;;;-148.88;55.44;76912.84;4995719;28;20485;-74
2023/05/03 09:52:54;;;;;;;3.88;2.38;;;;;;;-148.88;54.97;76841.72;5013344;28;20113;-74
2023/05/03 09:55:20;;;;;;;6.50;2.80;;;;;;;-148.88;58.52;76817.34;5013295;28;20049;-74
2023/05/03 09:57:46;;;;;;;9.13;2.60;;;;;;;-148.88;58.50;76780.78;5013408;28;20488;-74
2023/05/03 10:00:12;;;;;;;5.78;2.45;;;;;;;-148.88;54.51;76780.78;5013241;28;20034;-74
2023/05/03 10:02:41;;;;;;;6.47;2.78;;;;;;;-148.88;55.45;76764.53;4995602;28;20520;-74
2023/05/03 10:05:10;;;;;;;8.65;2.70;;;;;;;-148.88;53.13;76709.66;5013050;28;20025;-74
2023/05/03 10:07:39;;;;;;;5.10;2.50;;;;;;;-148.88;53.99;76902.69;5013905;28;20026;-74
2023/05/03 10:10:06;;;;;;;8.80;3.40;;;;;;;-148.88;59.28;76849.84;4995628;28;20049;-74
2023/05/03 10:12:34;;;;;;;5.40;2.70;;;;;;;-148.88;58.88;76744.19;5013109;28;20033;-74
2023/05/03 10:15:04;;;;;;;5.38;3.10;;;;;;;-148.88;53.57;76752.31;4995710;28;20451;-74
2023/05/03 10:17:33;;;;;;;8.45;3.22;;;;;;;-148.88;54.91;76715.75;5012882;28;20033;-75
2023/05/03 10:20:14;;;;;;;5.88;2.85;;;;;;;-148.88;51.79;76717.78;4995335;28;20388;-74
2023/05/03 10:23:10;;;;;;;7.57;2.95;;;;;;;-148.88;51.78;76677.16;4995814;28;20384;-74
2023/05/03 10:25:37;;;;;;;4.70;2.78;;;;;;;-148.88;49.50;76630.44;5012874;28;20036;-74
2023/05/03 10:28:05;;;;;;;6.45;3.13;;;;;;;-148.88;50.28;76604.00;5013065;28;20052;-74
2023/05/03 10:30:35;;;;;;;6.60;3.20;;;;;;;-148.88;48.72;76581.66;5012971;28;20109;-75
2023/05/03 10:33:10;;;;;;;7.15;3.40;;;;;;;-148.88;50.38;76561.34;4995808;28;20370;-74
2023/05/03 10:35:39;;;;;;;5.53;3.00;;;;;;;-148.88;53.33;76597.91;4995198;28;20030;-74
2023/05/03 10:38:15;;;;;;;6.82;3.15;;;;;;;-148.88;52.44;76616.22;5012882;28;20550;-74
2023/05/03 10:40:42;;;;;;;8.32;3.28;;;;;;;-148.88;52.50;76650.75;5012818;28;20508;-74
2023/05/03 10:43:30;;;;;;;5.90;2.83;;;;;;;-148.88;53.03;76630.44;4995387;28;20037;-74
2023/05/03 10:46:00;;;;;;;5.13;2.45;;;;;;;-148.88;51.66;76634.50;4995549;28;20514;-75
2023/05/03 10:48:27;;;;;;;4.78;3.17;;;;;;;-148.88;53.63;76597.91;5012589;28;20498;-74
2023/05/03 10:50:54;;;;;;;7.22;3.40;;;;;;;-148.88;49.57;76536.97;5012963;28;20030;-75
2023/05/03 10:53:35;;;;;;;6.43;3.33;;;;;;;-148.88;52.29;76474.00;4995206;28;20113;-74
2023/05/03 10:56:11;;;;;;;5.72;3.08;;;;;;;-148.88;53.57;76644.66;5012585;28;20030;-74
2023/05/03 10:58:49;;;;;;;6.47;2.92;;;;;;;-148.88;52.93;76553.22;5013412;28;20480;-74
2023/05/03 11:01:16;;;;;;;5.45;3.13;;;;;;;-148.88;51.78;76522.75;5016669;28;20393;-74
2023/05/03 11:04:10;;;;;;;7.65;3.17;;;;;;;-148.88;51.93;76569.47;4998639;28;20036;-74
2023/05/03 11:06:37;;;;;;;5.20;2.95;;;;;;;-148.88;48.14;76471.97;5012682;28;20041;-74
2023/05/03 11:09:07;;;;;;;8.45;3.45;;;;;;;-148.88;50.49;76419.16;5016214;28;20022;-74
2023/05/03 11:11:35;;;;;;;7.60;2.83;;;;;;;-148.88;51.42;76346.00;5016167;28;20029;-74
2023/05/03 11:14:02;;;;;;;5.13;3.03;;;;;;;-148.88;46.96;76402.88;5016291;28;20476;-74